sensor_id;sensor_type;location;lat;lon;timestamp;P1;durP1;ratioP1;P2;durP2;ratioP2
5722;SDS011;2886;49.722;8.612;2023-09-19T00:02:02;2.13;;;1.20;;
5722;SDS011;2886;49.722;8.612;2023-09-19T00:04:32;1.47;;;1.27;;
5722;SDS011;2886;49.722;8.612;2023-09-19T00:06:58;1.83;;;1.40;;
5722;SDS011;2886;49.722;8.612;2023-09-19T00:09:24;6.00;;;1.57;;
5722;SDS011;2886;49.722;8.612;2023-09-19T00:11:52;7.43;;;1.83;;
5722;SDS011;2886;49.722;8.612;2023-09-19T00:14:19;5.47;;;1.57;;
5722;SDS011;2886;49.722;8.612;2023-09-19T00:16:44;2.67;;;1.53;;
5722;SDS011;2886;49.722;8.612;2023-09-19T00:19:11;2.83;;;1.80;;
5722;SDS011;2886;49.722;8.612;2023-09-19T00:21:37;1.57;;;1.10;;
5722;SDS011;2886;49.722;8.612;2023-09-19T00:24:04;3.53;;;1.77;;
5722;SDS011;2886;49.722;8.612;2023-09-19T00:26:31;1.30;;;1.20;;
5722;SDS011;2886;49.722;8.612;2023-09-19T00:28:57;6.30;;;1.47;;
5722;SDS011;2886;49.722;8.612;2023-09-19T00:31:29;6.50;;;1.53;;
5722;SDS011;2886;49.722;8.612;2023-09-19T00:33:55;5.03;;;1.40;;
5722;SDS011;2886;49.722;8.612;2023-09-19T00:36:27;1.63;;;1.10;;
5722;SDS011;2886;49.722;8.612;2023-09-19T00:38:54;2.50;;;1.50;;
5722;SDS011;2886;49.722;8.612;2023-09-19T00:41:19;4.20;;;1.40;;
5722;SDS011;2886;49.722;8.612;2023-09-19T00:43:46;2.43;;;1.20;;
5722;SDS011;2886;49.722;8.612;2023-09-19T00:46:12;3.83;;;1.40;;
5722;SDS011;2886;49.722;8.612;2023-09-19T00:48:42;2.40;;;1.30;;
5722;SDS011;2886;49.722;8.612;2023-09-19T00:51:11;3.97;;;1.57;;
5722;SDS011;2886;49.722;8.612;2023-09-19T00:53:39;3.33;;;1.30;;
5722;SDS011;2886;49.722;8.612;2023-09-19T00:56:07;1.33;;;1.20;;
5722;SDS011;2886;49.722;8.612;2023-09-19T00:58:33;2.43;;;1.30;;
5722;SDS011;2886;49.722;8.612;2023-09-19T01:01:00;2.43;;;1.33;;
5722;SDS011;2886;49.722;8.612;2023-09-19T01:03:28;2.60;;;1.30;;
5722;SDS011;2886;49.722;8.612;2023-09-19T01:05:54;2.50;;;1.53;;
5722;SDS011;2886;49.722;8.612;2023-09-19T01:08:19;2.40;;;1.30;;
5722;SDS011;2886;49.722;8.612;2023-09-19T01:10:52;3.00;;;1.53;;
5722;SDS011;2886;49.722;8.612;2023-09-19T01:16:32;1.40;;;1.30;;
5722;SDS011;2886;49.722;8.612;2023-09-19T01:19:15;4.90;;;1.60;;
5722;SDS011;2886;49.722;8.612;2023-09-19T01:22:00;4.63;;;1.87;;
5722;SDS011;2886;49.722;8.612;2023-09-19T01:29:44;1.93;;;1.53;;
5722;SDS011;2886;49.722;8.612;2023-09-19T01:32:13;3.67;;;1.80;;
5722;SDS011;2886;49.722;8.612;2023-09-19T01:37:18;2.73;;;1.50;;
5722;SDS011;2886;49.722;8.612;2023-09-19T01:39:48;4.20;;;1.60;;
5722;SDS011;2886;49.722;8.612;2023-09-19T01:51:01;4.70;;;1.70;;
5722;SDS011;2886;49.722;8.612;2023-09-19T01:53:35;4.17;;;1.80;;
5722;SDS011;2886;49.722;8.612;2023-09-19T01:56:42;4.70;;;1.37;;
5722;SDS011;2886;49.722;8.612;2023-09-19T01:59:14;2.93;;;1.37;;
5722;SDS011;2886;49.722;8.612;2023-09-19T02:01:46;2.43;;;1.60;;
5722;SDS011;2886;49.722;8.612;2023-09-19T02:04:14;7.00;;;2.10;;
5722;SDS011;2886;49.722;8.612;2023-09-19T02:06:40;4.50;;;1.60;;
5722;SDS011;2886;49.722;8.612;2023-09-19T02:09:07;1.80;;;1.10;;
5722;SDS011;2886;49.722;8.612;2023-09-19T02:11:34;4.33;;;1.80;;
5722;SDS011;2886;49.722;8.612;2023-09-19T02:14:00;2.53;;;1.37;;
5722;SDS011;2886;49.722;8.612;2023-09-19T02:16:27;6.83;;;1.93;;
5722;SDS011;2886;49.722;8.612;2023-09-19T02:18:54;2.30;;;1.80;;
5722;SDS011;2886;49.722;8.612;2023-09-19T02:21:19;4.07;;;1.73;;
5722;SDS011;2886;49.722;8.612;2023-09-19T02:23:46;4.43;;;1.60;;
5722;SDS011;2886;49.722;8.612;2023-09-19T02:26:12;4.73;;;1.40;;
5722;SDS011;2886;49.722;8.612;2023-09-19T02:28:39;3.90;;;2.43;;
5722;SDS011;2886;49.722;8.612;2023-09-19T02:31:04;3.20;;;2.00;;
5722;SDS011;2886;49.722;8.612;2023-09-19T02:33:30;2.17;;;1.67;;
5722;SDS011;2886;49.722;8.612;2023-09-19T02:35:57;6.30;;;1.60;;
5722;SDS011;2886;49.722;8.612;2023-09-19T02:38:24;3.07;;;1.93;;
5722;SDS011;2886;49.722;8.612;2023-09-19T02:40:51;3.00;;;1.87;;
5722;SDS011;2886;49.722;8.612;2023-09-19T02:43:20;3.20;;;2.23;;
5722;SDS011;2886;49.722;8.612;2023-09-19T02:45:49;7.37;;;1.60;;
5722;SDS011;2886;49.722;8.612;2023-09-19T02:48:15;3.37;;;1.77;;
5722;SDS011;2886;49.722;8.612;2023-09-19T02:50:42;3.87;;;1.90;;
5722;SDS011;2886;49.722;8.612;2023-09-19T02:53:09;2.67;;;1.70;;
5722;SDS011;2886;49.722;8.612;2023-09-19T02:55:37;2.43;;;1.80;;
5722;SDS011;2886;49.722;8.612;2023-09-19T02:58:05;2.90;;;1.80;;
5722;SDS011;2886;49.722;8.612;2023-09-19T03:00:33;4.30;;;2.13;;
5722;SDS011;2886;49.722;8.612;2023-09-19T03:03:00;2.90;;;1.87;;
5722;SDS011;2886;49.722;8.612;2023-09-19T03:05:27;2.20;;;2.00;;
5722;SDS011;2886;49.722;8.612;2023-09-19T03:07:56;3.63;;;2.20;;
5722;SDS011;2886;49.722;8.612;2023-09-19T03:10:25;5.23;;;1.87;;
5722;SDS011;2886;49.722;8.612;2023-09-19T03:12:51;4.53;;;2.40;;
5722;SDS011;2886;49.722;8.612;2023-09-19T03:15:17;2.97;;;1.90;;
5722;SDS011;2886;49.722;8.612;2023-09-19T03:17:46;5.33;;;2.30;;
5722;SDS011;2886;49.722;8.612;2023-09-19T03:20:13;5.87;;;2.23;;
5722;SDS011;2886;49.722;8.612;2023-09-19T03:22:42;5.83;;;2.40;;
5722;SDS011;2886;49.722;8.612;2023-09-19T03:25:08;9.30;;;3.00;;
5722;SDS011;2886;49.722;8.612;2023-09-19T03:27:35;2.90;;;2.50;;
5722;SDS011;2886;49.722;8.612;2023-09-19T03:30:01;4.40;;;2.00;;
5722;SDS011;2886;49.722;8.612;2023-09-19T03:32:32;3.20;;;1.80;;
5722;SDS011;2886;49.722;8.612;2023-09-19T03:34:57;2.97;;;2.03;;
5722;SDS011;2886;49.722;8.612;2023-09-19T03:37:23;3.33;;;1.90;;
5722;SDS011;2886;49.722;8.612;2023-09-19T03:39:49;9.37;;;3.10;;
5722;SDS011;2886;49.722;8.612;2023-09-19T03:42:15;14.50;;;2.60;;
5722;SDS011;2886;49.722;8.612;2023-09-19T03:44:41;4.43;;;2.40;;
5722;SDS011;2886;49.722;8.612;2023-09-19T03:47:06;3.70;;;2.67;;
5722;SDS011;2886;49.722;8.612;2023-09-19T03:49:32;5.43;;;2.17;;
5722;SDS011;2886;49.722;8.612;2023-09-19T03:51:59;3.07;;;2.13;;
5722;SDS011;2886;49.722;8.612;2023-09-19T03:54:24;6.53;;;2.57;;
5722;SDS011;2886;49.722;8.612;2023-09-19T03:56:50;6.90;;;2.40;;
5722;SDS011;2886;49.722;8.612;2023-09-19T03:59:15;4.87;;;2.10;;
5722;SDS011;2886;49.722;8.612;2023-09-19T04:01:43;5.67;;;3.03;;
5722;SDS011;2886;49.722;8.612;2023-09-19T04:04:09;4.97;;;3.03;;
5722;SDS011;2886;49.722;8.612;2023-09-19T04:06:34;4.53;;;2.33;;
5722;SDS011;2886;49.722;8.612;2023-09-19T04:09:01;5.00;;;2.30;;
5722;SDS011;2886;49.722;8.612;2023-09-19T04:11:32;2.70;;;2.30;;
5722;SDS011;2886;49.722;8.612;2023-09-19T04:13:58;8.67;;;2.33;;
5722;SDS011;2886;49.722;8.612;2023-09-19T04:16:24;3.70;;;2.47;;
5722;SDS011;2886;49.722;8.612;2023-09-19T04:18:50;4.47;;;2.70;;
5722;SDS011;2886;49.722;8.612;2023-09-19T04:21:15;3.17;;;2.77;;
5722;SDS011;2886;49.722;8.612;2023-09-19T04:23:41;4.60;;;2.70;;
5722;SDS011;2886;49.722;8.612;2023-09-19T04:26:07;3.37;;;2.37;;
5722;SDS011;2886;49.722;8.612;2023-09-19T04:28:33;3.50;;;3.20;;
5722;SDS011;2886;49.722;8.612;2023-09-19T04:30:59;4.00;;;3.27;;
5722;SDS011;2886;49.722;8.612;2023-09-19T04:33:25;4.53;;;2.80;;
5722;SDS011;2886;49.722;8.612;2023-09-19T04:35:54;6.60;;;2.90;;
5722;SDS011;2886;49.722;8.612;2023-09-19T04:38:21;5.30;;;3.80;;
5722;SDS011;2886;49.722;8.612;2023-09-19T04:40:47;5.57;;;2.70;;
5722;SDS011;2886;49.722;8.612;2023-09-19T04:43:12;5.30;;;3.33;;
5722;SDS011;2886;49.722;8.612;2023-09-19T04:45:38;4.50;;;3.20;;
5722;SDS011;2886;49.722;8.612;2023-09-19T04:48:05;7.43;;;3.67;;
5722;SDS011;2886;49.722;8.612;2023-09-19T04:50:34;4.40;;;3.73;;
5722;SDS011;2886;49.722;8.612;2023-09-19T04:53:00;4.57;;;3.63;;
5722;SDS011;2886;49.722;8.612;2023-09-19T04:55:26;4.37;;;3.60;;
5722;SDS011;2886;49.722;8.612;2023-09-19T04:57:52;3.80;;;3.00;;
5722;SDS011;2886;49.722;8.612;2023-09-19T05:00:19;3.80;;;3.27;;
5722;SDS011;2886;49.722;8.612;2023-09-19T05:02:52;6.90;;;3.70;;
5722;SDS011;2886;49.722;8.612;2023-09-19T05:05:21;11.50;;;3.40;;
5722;SDS011;2886;49.722;8.612;2023-09-19T05:07:47;9.17;;;3.80;;
5722;SDS011;2886;49.722;8.612;2023-09-19T05:10:13;7.80;;;3.87;;
5722;SDS011;2886;49.722;8.612;2023-09-19T05:12:39;16.33;;;3.70;;
5722;SDS011;2886;49.722;8.612;2023-09-19T05:15:06;5.80;;;4.00;;
5722;SDS011;2886;49.722;8.612;2023-09-19T05:17:33;5.20;;;3.30;;
5722;SDS011;2886;49.722;8.612;2023-09-19T05:19:59;4.33;;;3.50;;
5722;SDS011;2886;49.722;8.612;2023-09-19T05:22:49;5.00;;;3.60;;
5722;SDS011;2886;49.722;8.612;2023-09-19T05:25:15;6.87;;;3.83;;
5722;SDS011;2886;49.722;8.612;2023-09-19T05:27:43;6.87;;;4.30;;
5722;SDS011;2886;49.722;8.612;2023-09-19T05:30:09;7.60;;;3.63;;
5722;SDS011;2886;49.722;8.612;2023-09-19T05:32:35;6.07;;;3.57;;
5722;SDS011;2886;49.722;8.612;2023-09-19T05:35:00;7.93;;;4.27;;
5722;SDS011;2886;49.722;8.612;2023-09-19T05:37:26;3.50;;;3.20;;
5722;SDS011;2886;49.722;8.612;2023-09-19T05:39:52;4.87;;;3.60;;
5722;SDS011;2886;49.722;8.612;2023-09-19T05:42:21;7.17;;;4.20;;
5722;SDS011;2886;49.722;8.612;2023-09-19T05:44:46;7.40;;;3.43;;
5722;SDS011;2886;49.722;8.612;2023-09-19T05:47:12;6.77;;;3.47;;
5722;SDS011;2886;49.722;8.612;2023-09-19T05:49:38;5.70;;;3.17;;
5722;SDS011;2886;49.722;8.612;2023-09-19T05:52:05;9.50;;;4.20;;
5722;SDS011;2886;49.722;8.612;2023-09-19T05:54:31;6.53;;;3.43;;
5722;SDS011;2886;49.722;8.612;2023-09-19T05:56:58;7.83;;;3.10;;
5722;SDS011;2886;49.722;8.612;2023-09-19T05:59:23;5.70;;;3.43;;
5722;SDS011;2886;49.722;8.612;2023-09-19T06:01:49;5.37;;;3.23;;
5722;SDS011;2886;49.722;8.612;2023-09-19T06:04:14;7.87;;;3.37;;
5722;SDS011;2886;49.722;8.612;2023-09-19T06:06:40;5.67;;;3.90;;
5722;SDS011;2886;49.722;8.612;2023-09-19T06:09:06;6.90;;;3.43;;
5722;SDS011;2886;49.722;8.612;2023-09-19T06:11:35;9.30;;;3.83;;
5722;SDS011;2886;49.722;8.612;2023-09-19T06:14:01;5.63;;;3.00;;
5722;SDS011;2886;49.722;8.612;2023-09-19T06:16:27;8.37;;;3.50;;
5722;SDS011;2886;49.722;8.612;2023-09-19T06:18:54;7.67;;;3.50;;
5722;SDS011;2886;49.722;8.612;2023-09-19T06:21:21;5.53;;;2.73;;
5722;SDS011;2886;49.722;8.612;2023-09-19T06:23:47;7.93;;;3.53;;
5722;SDS011;2886;49.722;8.612;2023-09-19T06:26:13;5.57;;;2.77;;
5722;SDS011;2886;49.722;8.612;2023-09-19T06:28:38;6.13;;;3.20;;
5722;SDS011;2886;49.722;8.612;2023-09-19T06:31:04;10.60;;;3.23;;
5722;SDS011;2886;49.722;8.612;2023-09-19T06:33:34;5.50;;;3.20;;
5722;SDS011;2886;49.722;8.612;2023-09-19T06:36:03;8.07;;;3.63;;
5722;SDS011;2886;49.722;8.612;2023-09-19T06:38:29;4.80;;;3.27;;
5722;SDS011;2886;49.722;8.612;2023-09-19T06:40:56;7.47;;;3.37;;
5722;SDS011;2886;49.722;8.612;2023-09-19T06:43:23;7.63;;;3.30;;
5722;SDS011;2886;49.722;8.612;2023-09-19T06:45:48;6.43;;;3.53;;
5722;SDS011;2886;49.722;8.612;2023-09-19T06:48:16;5.67;;;2.83;;
5722;SDS011;2886;49.722;8.612;2023-09-19T06:50:43;6.53;;;2.80;;
5722;SDS011;2886;49.722;8.612;2023-09-19T06:53:09;5.93;;;2.53;;
5722;SDS011;2886;49.722;8.612;2023-09-19T06:55:35;6.17;;;2.97;;
5722;SDS011;2886;49.722;8.612;2023-09-19T06:58:01;8.73;;;3.43;;
5722;SDS011;2886;49.722;8.612;2023-09-19T07:00:27;9.60;;;2.50;;
5722;SDS011;2886;49.722;8.612;2023-09-19T07:05:23;4.20;;;2.67;;
5722;SDS011;2886;49.722;8.612;2023-09-19T07:07:49;5.70;;;2.40;;
5722;SDS011;2886;49.722;8.612;2023-09-19T07:10:15;5.37;;;2.20;;
5722;SDS011;2886;49.722;8.612;2023-09-19T07:12:40;9.70;;;3.73;;
5722;SDS011;2886;49.722;8.612;2023-09-19T07:15:08;3.87;;;2.50;;
5722;SDS011;2886;49.722;8.612;2023-09-19T07:17:34;4.57;;;2.23;;
5722;SDS011;2886;49.722;8.612;2023-09-19T07:20:00;3.87;;;2.20;;
5722;SDS011;2886;49.722;8.612;2023-09-19T07:22:26;4.83;;;2.00;;
5722;SDS011;2886;49.722;8.612;2023-09-19T07:24:52;5.00;;;2.13;;
5722;SDS011;2886;49.722;8.612;2023-09-19T07:27:17;16.87;;;2.60;;
5722;SDS011;2886;49.722;8.612;2023-09-19T07:29:43;3.57;;;2.17;;
5722;SDS011;2886;49.722;8.612;2023-09-19T07:32:09;13.83;;;2.20;;
5722;SDS011;2886;49.722;8.612;2023-09-19T07:34:35;4.63;;;2.43;;
5722;SDS011;2886;49.722;8.612;2023-09-19T07:37:01;2.83;;;2.30;;
5722;SDS011;2886;49.722;8.612;2023-09-19T07:39:27;8.50;;;2.60;;
5722;SDS011;2886;49.722;8.612;2023-09-19T07:41:53;8.50;;;2.30;;
5722;SDS011;2886;49.722;8.612;2023-09-19T07:44:19;5.90;;;2.00;;
5722;SDS011;2886;49.722;8.612;2023-09-19T07:46:45;4.23;;;2.27;;
5722;SDS011;2886;49.722;8.612;2023-09-19T07:49:10;3.67;;;2.13;;
5722;SDS011;2886;49.722;8.612;2023-09-19T08:06:26;3.73;;;2.27;;
5722;SDS011;2886;49.722;8.612;2023-09-19T08:08:55;6.90;;;1.63;;
5722;SDS011;2886;49.722;8.612;2023-09-19T08:11:22;4.53;;;1.87;;
5722;SDS011;2886;49.722;8.612;2023-09-19T08:13:49;2.57;;;1.80;;
5722;SDS011;2886;49.722;8.612;2023-09-19T08:16:15;3.70;;;1.90;;
5722;SDS011;2886;49.722;8.612;2023-09-19T08:18:43;5.60;;;2.20;;
5722;SDS011;2886;49.722;8.612;2023-09-19T08:21:12;4.87;;;1.77;;
5722;SDS011;2886;49.722;8.612;2023-09-19T08:23:40;3.83;;;1.53;;
5722;SDS011;2886;49.722;8.612;2023-09-19T08:26:07;8.50;;;2.00;;
5722;SDS011;2886;49.722;8.612;2023-09-19T08:28:33;2.50;;;1.60;;
5722;SDS011;2886;49.722;8.612;2023-09-19T08:31:03;3.03;;;1.70;;
5722;SDS011;2886;49.722;8.612;2023-09-19T08:33:33;3.87;;;1.80;;
5722;SDS011;2886;49.722;8.612;2023-09-19T08:36:00;3.60;;;1.97;;
5722;SDS011;2886;49.722;8.612;2023-09-19T08:38:29;4.60;;;2.00;;
5722;SDS011;2886;49.722;8.612;2023-09-19T08:40:59;6.03;;;2.07;;
5722;SDS011;2886;49.722;8.612;2023-09-19T08:43:26;3.60;;;1.93;;
5722;SDS011;2886;49.722;8.612;2023-09-19T08:45:57;5.03;;;2.07;;
5722;SDS011;2886;49.722;8.612;2023-09-19T08:48:33;5.70;;;1.70;;
5722;SDS011;2886;49.722;8.612;2023-09-19T08:51:12;8.73;;;2.67;;
5722;SDS011;2886;49.722;8.612;2023-09-19T08:53:50;7.60;;;2.40;;
5722;SDS011;2886;49.722;8.612;2023-09-19T08:56:19;3.50;;;1.60;;
5722;SDS011;2886;49.722;8.612;2023-09-19T08:58:50;6.30;;;2.00;;
5722;SDS011;2886;49.722;8.612;2023-09-19T09:01:20;2.50;;;1.60;;
5722;SDS011;2886;49.722;8.612;2023-09-19T09:03:52;8.30;;;1.93;;
5722;SDS011;2886;49.722;8.612;2023-09-19T09:06:21;6.10;;;1.97;;
5722;SDS011;2886;49.722;8.612;2023-09-19T09:08:48;6.30;;;2.10;;
5722;SDS011;2886;49.722;8.612;2023-09-19T09:11:16;3.07;;;1.73;;
5722;SDS011;2886;49.722;8.612;2023-09-19T09:13:43;6.20;;;1.87;;
5722;SDS011;2886;49.722;8.612;2023-09-19T09:16:13;4.00;;;1.60;;
5722;SDS011;2886;49.722;8.612;2023-09-19T09:18:39;5.83;;;2.03;;
5722;SDS011;2886;49.722;8.612;2023-09-19T09:21:06;4.87;;;1.83;;
5722;SDS011;2886;49.722;8.612;2023-09-19T09:23:31;6.73;;;1.90;;
5722;SDS011;2886;49.722;8.612;2023-09-19T09:25:57;4.60;;;1.70;;
5722;SDS011;2886;49.722;8.612;2023-09-19T09:28:28;7.30;;;2.10;;
5722;SDS011;2886;49.722;8.612;2023-09-19T09:30:55;9.20;;;2.10;;
5722;SDS011;2886;49.722;8.612;2023-09-19T09:33:23;8.43;;;1.70;;
5722;SDS011;2886;49.722;8.612;2023-09-19T09:35:53;6.93;;;2.00;;
5722;SDS011;2886;49.722;8.612;2023-09-19T09:38:25;4.50;;;2.50;;
5722;SDS011;2886;49.722;8.612;2023-09-19T09:40:52;5.90;;;2.20;;
5722;SDS011;2886;49.722;8.612;2023-09-19T09:43:31;2.97;;;1.80;;
5722;SDS011;2886;49.722;8.612;2023-09-19T09:46:09;4.50;;;2.40;;
5722;SDS011;2886;49.722;8.612;2023-09-19T09:48:55;5.00;;;2.00;;
5722;SDS011;2886;49.722;8.612;2023-09-19T09:51:39;3.83;;;1.77;;
5722;SDS011;2886;49.722;8.612;2023-09-19T09:54:14;3.90;;;1.80;;
5722;SDS011;2886;49.722;8.612;2023-09-19T09:56:54;3.67;;;2.00;;
5722;SDS011;2886;49.722;8.612;2023-09-19T09:59:42;5.70;;;2.07;;
5722;SDS011;2886;49.722;8.612;2023-09-19T10:02:15;3.90;;;2.10;;
5722;SDS011;2886;49.722;8.612;2023-09-19T10:04:54;2.13;;;1.80;;
5722;SDS011;2886;49.722;8.612;2023-09-19T10:07:39;3.27;;;2.00;;
5722;SDS011;2886;49.722;8.612;2023-09-19T10:10:08;10.80;;;2.60;;
5722;SDS011;2886;49.722;8.612;2023-09-19T10:12:49;9.00;;;2.37;;
5722;SDS011;2886;49.722;8.612;2023-09-19T10:15:18;5.33;;;1.77;;
5722;SDS011;2886;49.722;8.612;2023-09-19T10:17:49;3.37;;;1.93;;
5722;SDS011;2886;49.722;8.612;2023-09-19T10:20:21;5.67;;;2.13;;
5722;SDS011;2886;49.722;8.612;2023-09-19T10:23:08;3.93;;;2.10;;
5722;SDS011;2886;49.722;8.612;2023-09-19T10:25:39;5.87;;;2.10;;
5722;SDS011;2886;49.722;8.612;2023-09-19T10:28:06;3.97;;;2.30;;
5722;SDS011;2886;49.722;8.612;2023-09-19T10:30:41;3.63;;;1.90;;
5722;SDS011;2886;49.722;8.612;2023-09-19T10:33:12;6.93;;;2.63;;
5722;SDS011;2886;49.722;8.612;2023-09-19T10:35:40;13.07;;;2.30;;
5722;SDS011;2886;49.722;8.612;2023-09-19T10:38:11;3.40;;;1.80;;
5722;SDS011;2886;49.722;8.612;2023-09-19T10:40:38;6.13;;;2.17;;
5722;SDS011;2886;49.722;8.612;2023-09-19T10:43:17;5.50;;;2.03;;
5722;SDS011;2886;49.722;8.612;2023-09-19T10:45:49;2.30;;;1.67;;
5722;SDS011;2886;49.722;8.612;2023-09-19T10:48:17;7.23;;;2.07;;
5722;SDS011;2886;49.722;8.612;2023-09-19T10:50:47;4.33;;;2.00;;
5722;SDS011;2886;49.722;8.612;2023-09-19T10:53:16;5.43;;;1.63;;
5722;SDS011;2886;49.722;8.612;2023-09-19T10:55:48;6.30;;;1.87;;
5722;SDS011;2886;49.722;8.612;2023-09-19T10:58:29;5.40;;;2.17;;
5722;SDS011;2886;49.722;8.612;2023-09-19T11:00:59;4.03;;;1.57;;
5722;SDS011;2886;49.722;8.612;2023-09-19T11:03:37;4.43;;;1.73;;
5722;SDS011;2886;49.722;8.612;2023-09-19T11:30:49;5.57;;;1.70;;
5722;SDS011;2886;49.722;8.612;2023-09-19T11:46:32;5.43;;;1.90;;
5722;SDS011;2886;49.722;8.612;2023-09-19T11:49:08;4.50;;;2.00;;
5722;SDS011;2886;49.722;8.612;2023-09-19T11:51:41;4.00;;;2.03;;
5722;SDS011;2886;49.722;8.612;2023-09-19T11:54:11;4.83;;;1.70;;
5722;SDS011;2886;49.722;8.612;2023-09-19T11:56:44;3.90;;;1.93;;
5722;SDS011;2886;49.722;8.612;2023-09-19T11:59:10;6.67;;;2.20;;
5722;SDS011;2886;49.722;8.612;2023-09-19T12:01:37;2.70;;;1.60;;
5722;SDS011;2886;49.722;8.612;2023-09-19T12:04:08;4.43;;;1.87;;
5722;SDS011;2886;49.722;8.612;2023-09-19T12:06:36;4.70;;;1.93;;
5722;SDS011;2886;49.722;8.612;2023-09-19T12:09:04;2.90;;;1.50;;
5722;SDS011;2886;49.722;8.612;2023-09-19T12:11:40;3.33;;;1.90;;
5722;SDS011;2886;49.722;8.612;2023-09-19T12:14:08;2.77;;;1.80;;
5722;SDS011;2886;49.722;8.612;2023-09-19T12:16:34;2.70;;;1.57;;
5722;SDS011;2886;49.722;8.612;2023-09-19T12:19:20;2.30;;;2.00;;
5722;SDS011;2886;49.722;8.612;2023-09-19T12:21:56;3.07;;;1.80;;
5722;SDS011;2886;49.722;8.612;2023-09-19T12:24:24;3.23;;;1.70;;
5722;SDS011;2886;49.722;8.612;2023-09-19T12:26:54;3.87;;;1.70;;
5722;SDS011;2886;49.722;8.612;2023-09-19T12:29:27;3.03;;;1.57;;
5722;SDS011;2886;49.722;8.612;2023-09-19T12:31:55;6.77;;;1.63;;
5722;SDS011;2886;49.722;8.612;2023-09-19T12:34:31;2.37;;;2.00;;
5722;SDS011;2886;49.722;8.612;2023-09-19T12:40:06;2.20;;;1.50;;
5722;SDS011;2886;49.722;8.612;2023-09-19T12:42:53;5.47;;;1.80;;
5722;SDS011;2886;49.722;8.612;2023-09-19T12:45:20;9.60;;;1.70;;
5722;SDS011;2886;49.722;8.612;2023-09-19T12:53:30;2.00;;;1.40;;
5722;SDS011;2886;49.722;8.612;2023-09-19T12:56:19;3.90;;;1.30;;
5722;SDS011;2886;49.722;8.612;2023-09-19T12:58:48;3.40;;;1.50;;
5722;SDS011;2886;49.722;8.612;2023-09-19T13:01:20;4.93;;;1.50;;
5722;SDS011;2886;49.722;8.612;2023-09-19T13:06:44;1.70;;;1.37;;
5722;SDS011;2886;49.722;8.612;2023-09-19T13:09:15;3.37;;;1.37;;
5722;SDS011;2886;49.722;8.612;2023-09-19T13:11:42;2.17;;;1.40;;
5722;SDS011;2886;49.722;8.612;2023-09-19T13:14:19;4.50;;;1.80;;
5722;SDS011;2886;49.722;8.612;2023-09-19T13:16:56;5.50;;;1.67;;
5722;SDS011;2886;49.722;8.612;2023-09-19T13:25:14;2.67;;;1.60;;
5722;SDS011;2886;49.722;8.612;2023-09-19T13:27:55;1.90;;;1.40;;
5722;SDS011;2886;49.722;8.612;2023-09-19T13:30:23;1.80;;;1.20;;
5722;SDS011;2886;49.722;8.612;2023-09-19T13:32:50;2.03;;;1.40;;
5722;SDS011;2886;49.722;8.612;2023-09-19T13:35:18;3.50;;;1.67;;
5722;SDS011;2886;49.722;8.612;2023-09-19T13:37:43;2.50;;;1.37;;
5722;SDS011;2886;49.722;8.612;2023-09-19T13:40:16;6.70;;;1.70;;
5722;SDS011;2886;49.722;8.612;2023-09-19T13:42:42;5.10;;;1.60;;
5722;SDS011;2886;49.722;8.612;2023-09-19T13:45:08;2.10;;;1.40;;
5722;SDS011;2886;49.722;8.612;2023-09-19T13:47:36;13.83;;;1.30;;
5722;SDS011;2886;49.722;8.612;2023-09-19T13:50:03;4.13;;;1.40;;
5722;SDS011;2886;49.722;8.612;2023-09-19T13:52:30;1.83;;;1.20;;
5722;SDS011;2886;49.722;8.612;2023-09-19T13:54:56;2.63;;;1.40;;
5722;SDS011;2886;49.722;8.612;2023-09-19T13:57:23;3.40;;;1.80;;
5722;SDS011;2886;49.722;8.612;2023-09-19T13:59:48;2.40;;;1.40;;
5722;SDS011;2886;49.722;8.612;2023-09-19T14:02:14;2.43;;;1.73;;
5722;SDS011;2886;49.722;8.612;2023-09-19T14:04:44;4.33;;;1.90;;
5722;SDS011;2886;49.722;8.612;2023-09-19T14:07:10;5.27;;;1.87;;
5722;SDS011;2886;49.722;8.612;2023-09-19T14:09:36;6.70;;;1.60;;
5722;SDS011;2886;49.722;8.612;2023-09-19T14:12:03;2.67;;;1.60;;
5722;SDS011;2886;49.722;8.612;2023-09-19T14:14:28;2.90;;;1.70;;
5722;SDS011;2886;49.722;8.612;2023-09-19T14:16:54;7.63;;;1.70;;
5722;SDS011;2886;49.722;8.612;2023-09-19T14:19:20;2.63;;;1.57;;
5722;SDS011;2886;49.722;8.612;2023-09-19T14:21:46;3.60;;;1.20;;
5722;SDS011;2886;49.722;8.612;2023-09-19T14:24:16;2.27;;;1.50;;
5722;SDS011;2886;49.722;8.612;2023-09-19T14:26:45;3.10;;;1.33;;
5722;SDS011;2886;49.722;8.612;2023-09-19T14:29:11;3.83;;;2.00;;
5722;SDS011;2886;49.722;8.612;2023-09-19T14:31:38;3.90;;;1.60;;
5722;SDS011;2886;49.722;8.612;2023-09-19T14:34:05;1.73;;;1.40;;
5722;SDS011;2886;49.722;8.612;2023-09-19T14:36:31;1.70;;;1.23;;
5722;SDS011;2886;49.722;8.612;2023-09-19T14:38:58;1.40;;;1.27;;
5722;SDS011;2886;49.722;8.612;2023-09-19T14:41:23;6.20;;;1.93;;
5722;SDS011;2886;49.722;8.612;2023-09-19T14:43:51;5.97;;;1.60;;
5722;SDS011;2886;49.722;8.612;2023-09-19T14:46:17;1.63;;;1.30;;
5722;SDS011;2886;49.722;8.612;2023-09-19T14:48:44;4.60;;;1.60;;
5722;SDS011;2886;49.722;8.612;2023-09-19T14:51:12;3.10;;;1.40;;
5722;SDS011;2886;49.722;8.612;2023-09-19T14:53:38;2.07;;;1.30;;
5722;SDS011;2886;49.722;8.612;2023-09-19T14:56:05;1.60;;;1.20;;
5722;SDS011;2886;49.722;8.612;2023-09-19T14:58:32;3.50;;;1.30;;
5722;SDS011;2886;49.722;8.612;2023-09-19T15:01:08;4.67;;;1.30;;
5722;SDS011;2886;49.722;8.612;2023-09-19T15:03:38;2.60;;;1.50;;
5722;SDS011;2886;49.722;8.612;2023-09-19T15:06:06;2.83;;;1.10;;
5722;SDS011;2886;49.722;8.612;2023-09-19T15:08:45;3.80;;;1.50;;
5722;SDS011;2886;49.722;8.612;2023-09-19T15:11:12;6.27;;;1.57;;
5722;SDS011;2886;49.722;8.612;2023-09-19T15:13:43;4.77;;;1.73;;
5722;SDS011;2886;49.722;8.612;2023-09-19T15:16:09;3.27;;;1.50;;
5722;SDS011;2886;49.722;8.612;2023-09-19T15:18:36;2.40;;;1.33;;
5722;SDS011;2886;49.722;8.612;2023-09-19T15:21:17;4.10;;;1.67;;
5722;SDS011;2886;49.722;8.612;2023-09-19T15:23:43;4.33;;;1.37;;
5722;SDS011;2886;49.722;8.612;2023-09-19T15:26:10;2.60;;;1.53;;
5722;SDS011;2886;49.722;8.612;2023-09-19T15:28:36;7.20;;;1.50;;
5722;SDS011;2886;49.722;8.612;2023-09-19T15:31:03;5.70;;;1.27;;
5722;SDS011;2886;49.722;8.612;2023-09-19T15:33:30;4.40;;;3.10;;
5722;SDS011;2886;49.722;8.612;2023-09-19T15:41:18;7.33;;;2.60;;
5722;SDS011;2886;49.722;8.612;2023-09-19T15:43:44;3.97;;;1.63;;
5722;SDS011;2886;49.722;8.612;2023-09-19T15:46:09;1.80;;;1.60;;
5722;SDS011;2886;49.722;8.612;2023-09-19T15:48:35;4.47;;;1.83;;
5722;SDS011;2886;49.722;8.612;2023-09-19T15:51:04;5.83;;;2.17;;
5722;SDS011;2886;49.722;8.612;2023-09-19T15:53:34;3.23;;;2.07;;
5722;SDS011;2886;49.722;8.612;2023-09-19T15:56:14;2.83;;;2.50;;
5722;SDS011;2886;49.722;8.612;2023-09-19T15:58:43;2.00;;;1.80;;
5722;SDS011;2886;49.722;8.612;2023-09-19T16:01:09;10.87;;;3.37;;
5722;SDS011;2886;49.722;8.612;2023-09-19T16:03:36;5.70;;;3.40;;
5722;SDS011;2886;49.722;8.612;2023-09-19T16:06:07;3.23;;;2.20;;
5722;SDS011;2886;49.722;8.612;2023-09-19T16:08:40;5.50;;;2.77;;
5722;SDS011;2886;49.722;8.612;2023-09-19T16:11:06;4.00;;;1.70;;
5722;SDS011;2886;49.722;8.612;2023-09-19T16:13:32;2.43;;;1.30;;
5722;SDS011;2886;49.722;8.612;2023-09-19T16:15:58;6.80;;;1.30;;
5722;SDS011;2886;49.722;8.612;2023-09-19T16:18:23;3.70;;;1.20;;
5722;SDS011;2886;49.722;8.612;2023-09-19T16:20:49;14.87;;;1.37;;
5722;SDS011;2886;49.722;8.612;2023-09-19T16:23:15;3.10;;;1.43;;
5722;SDS011;2886;49.722;8.612;2023-09-19T16:25:41;3.30;;;1.43;;
5722;SDS011;2886;49.722;8.612;2023-09-19T16:28:07;1.93;;;1.70;;
5722;SDS011;2886;49.722;8.612;2023-09-19T16:30:33;1.17;;;1.07;;
5722;SDS011;2886;49.722;8.612;2023-09-19T16:32:59;1.50;;;1.40;;
5722;SDS011;2886;49.722;8.612;2023-09-19T16:35:25;1.83;;;1.40;;
5722;SDS011;2886;49.722;8.612;2023-09-19T16:37:51;3.87;;;1.37;;
5722;SDS011;2886;49.722;8.612;2023-09-19T16:40:16;3.93;;;1.23;;
5722;SDS011;2886;49.722;8.612;2023-09-19T16:42:42;2.37;;;1.90;;
5722;SDS011;2886;49.722;8.612;2023-09-19T16:45:08;3.80;;;1.47;;
5722;SDS011;2886;49.722;8.612;2023-09-19T16:47:37;2.70;;;1.20;;
5722;SDS011;2886;49.722;8.612;2023-09-19T16:50:03;2.40;;;1.40;;
5722;SDS011;2886;49.722;8.612;2023-09-19T16:52:30;4.33;;;1.20;;
5722;SDS011;2886;49.722;8.612;2023-09-19T16:54:56;1.67;;;1.30;;
5722;SDS011;2886;49.722;8.612;2023-09-19T16:57:22;4.40;;;1.40;;
5722;SDS011;2886;49.722;8.612;2023-09-19T16:59:48;2.80;;;1.47;;
5722;SDS011;2886;49.722;8.612;2023-09-19T17:02:15;6.67;;;1.60;;